sensor_id;sensor_type;location;lat;lon;timestamp;P1;durP1;ratioP1;P2;durP2;ratioP2
51578;SDS011;47998;53.242;6.386;2022-12-29T00:01:29;7.82;;;7.10;;
51578;SDS011;47998;53.242;6.386;2022-12-29T00:03:58;11.30;;;8.02;;
51578;SDS011;47998;53.242;6.386;2022-12-29T00:06:24;10.35;;;8.32;;
51578;SDS011;47998;53.242;6.386;2022-12-29T00:08:50;8.90;;;6.72;;
51578;SDS011;47998;53.242;6.386;2022-12-29T00:11:19;8.90;;;6.97;;
51578;SDS011;47998;53.242;6.386;2022-12-29T00:13:47;8.73;;;7.82;;
51578;SDS011;47998;53.242;6.386;2022-12-29T00:16:32;6.50;;;5.90;;
51578;SDS011;47998;53.242;6.386;2022-12-29T00:18:59;7.18;;;6.43;;
51578;SDS011;47998;53.242;6.386;2022-12-29T00:21:25;5.70;;;5.20;;
51578;SDS011;47998;53.242;6.386;2022-12-29T00:24:18;5.53;;;5.03;;
51578;SDS011;47998;53.242;6.386;2022-12-29T00:29:48;5.47;;;4.95;;
51578;SDS011;47998;53.242;6.386;2022-12-29T00:32:33;5.40;;;4.78;;
51578;SDS011;47998;53.242;6.386;2022-12-29T00:35:28;6.60;;;4.10;;
51578;SDS011;47998;53.242;6.386;2022-12-29T00:37:57;5.75;;;5.20;;
51578;SDS011;47998;53.242;6.386;2022-12-29T00:40:44;5.03;;;3.97;;
51578;SDS011;47998;53.242;6.386;2022-12-29T00:43:28;5.85;;;5.22;;
51578;SDS011;47998;53.242;6.386;2022-12-29T00:46:13;5.00;;;4.50;;
51578;SDS011;47998;53.242;6.386;2022-12-29T00:48:39;6.05;;;4.68;;
51578;SDS011;47998;53.242;6.386;2022-12-29T00:51:23;5.45;;;4.18;;
51578;SDS011;47998;53.242;6.386;2022-12-29T00:53:49;5.82;;;4.60;;
51578;SDS011;47998;53.242;6.386;2022-12-29T00:56:15;7.55;;;4.38;;
51578;SDS011;47998;53.242;6.386;2022-12-29T00:58:40;7.75;;;4.97;;
51578;SDS011;47998;53.242;6.386;2022-12-29T01:01:07;5.47;;;4.65;;
51578;SDS011;47998;53.242;6.386;2022-12-29T01:03:34;5.55;;;4.93;;
51578;SDS011;47998;53.242;6.386;2022-12-29T01:06:01;5.85;;;4.63;;
51578;SDS011;47998;53.242;6.386;2022-12-29T01:08:32;5.32;;;4.20;;
51578;SDS011;47998;53.242;6.386;2022-12-29T01:11:09;5.10;;;4.07;;
51578;SDS011;47998;53.242;6.386;2022-12-29T01:13:43;4.05;;;3.35;;
51578;SDS011;47998;53.242;6.386;2022-12-29T01:16:09;3.42;;;2.90;;
51578;SDS011;47998;53.242;6.386;2022-12-29T01:18:35;4.47;;;3.50;;
51578;SDS011;47998;53.242;6.386;2022-12-29T01:21:01;5.07;;;3.50;;
51578;SDS011;47998;53.242;6.386;2022-12-29T01:23:29;5.13;;;3.50;;
51578;SDS011;47998;53.242;6.386;2022-12-29T01:25:56;5.07;;;4.13;;
51578;SDS011;47998;53.242;6.386;2022-12-29T01:28:22;4.93;;;3.83;;
51578;SDS011;47998;53.242;6.386;2022-12-29T01:30:51;8.77;;;4.85;;
51578;SDS011;47998;53.242;6.386;2022-12-29T01:33:17;6.63;;;5.20;;
51578;SDS011;47998;53.242;6.386;2022-12-29T01:35:42;7.68;;;4.38;;
51578;SDS011;47998;53.242;6.386;2022-12-29T01:38:08;7.03;;;5.13;;
51578;SDS011;47998;53.242;6.386;2022-12-29T01:40:42;6.55;;;4.60;;
51578;SDS011;47998;53.242;6.386;2022-12-29T01:43:10;5.10;;;3.97;;
51578;SDS011;47998;53.242;6.386;2022-12-29T01:45:37;5.03;;;4.53;;
51578;SDS011;47998;53.242;6.386;2022-12-29T01:48:03;6.32;;;5.07;;
51578;SDS011;47998;53.242;6.386;2022-12-29T01:50:35;5.50;;;5.00;;
51578;SDS011;47998;53.242;6.386;2022-12-29T01:53:20;6.07;;;5.47;;
51578;SDS011;47998;53.242;6.386;2022-12-29T01:55:52;6.00;;;5.30;;
51578;SDS011;47998;53.242;6.386;2022-12-29T01:58:26;7.75;;;6.80;;
51578;SDS011;47998;53.242;6.386;2022-12-29T02:00:57;9.63;;;6.53;;
51578;SDS011;47998;53.242;6.386;2022-12-29T02:03:25;7.93;;;6.75;;
51578;SDS011;47998;53.242;6.386;2022-12-29T02:06:11;8.77;;;7.38;;
51578;SDS011;47998;53.242;6.386;2022-12-29T02:08:44;8.88;;;8.02;;
51578;SDS011;47998;53.242;6.386;2022-12-29T02:11:12;10.57;;;9.13;;
51578;SDS011;47998;53.242;6.386;2022-12-29T02:13:38;11.68;;;8.57;;
51578;SDS011;47998;53.242;6.386;2022-12-29T02:16:20;11.23;;;8.43;;
51578;SDS011;47998;53.242;6.386;2022-12-29T02:27:28;10.27;;;8.07;;
51578;SDS011;47998;53.242;6.386;2022-12-29T02:32:32;9.60;;;8.27;;
51578;SDS011;47998;53.242;6.386;2022-12-29T02:38:30;13.85;;;9.23;;
51578;SDS011;47998;53.242;6.386;2022-12-29T02:44:05;10.35;;;8.43;;
51578;SDS011;47998;53.242;6.386;2022-12-29T02:46:44;8.95;;;7.40;;
51578;SDS011;47998;53.242;6.386;2022-12-29T02:49:25;8.68;;;7.38;;
51578;SDS011;47998;53.242;6.386;2022-12-29T02:54:31;8.20;;;5.45;;
51578;SDS011;47998;53.242;6.386;2022-12-29T02:59:55;5.35;;;4.85;;
51578;SDS011;47998;53.242;6.386;2022-12-29T03:02:34;3.83;;;3.38;;
51578;SDS011;47998;53.242;6.386;2022-12-29T03:05:17;2.70;;;2.10;;
51578;SDS011;47998;53.242;6.386;2022-12-29T03:07:59;3.10;;;2.13;;
51578;SDS011;47998;53.242;6.386;2022-12-29T03:10:46;3.35;;;2.00;;
51578;SDS011;47998;53.242;6.386;2022-12-29T03:13:28;4.90;;;1.70;;
51578;SDS011;47998;53.242;6.386;2022-12-29T03:21:17;2.80;;;2.40;;
51578;SDS011;47998;53.242;6.386;2022-12-29T03:24:12;4.22;;;1.90;;
51578;SDS011;47998;53.242;6.386;2022-12-29T03:26:39;3.38;;;1.27;;
51578;SDS011;47998;53.242;6.386;2022-12-29T03:29:07;6.40;;;1.65;;
51578;SDS011;47998;53.242;6.386;2022-12-29T03:31:35;3.63;;;0.73;;
51578;SDS011;47998;53.242;6.386;2022-12-29T03:34:02;4.88;;;1.13;;
51578;SDS011;47998;53.242;6.386;2022-12-29T03:36:32;3.35;;;0.90;;
51578;SDS011;47998;53.242;6.386;2022-12-29T03:39:11;5.10;;;1.30;;
51578;SDS011;47998;53.242;6.386;2022-12-29T03:41:39;3.85;;;1.25;;
51578;SDS011;47998;53.242;6.386;2022-12-29T03:44:07;5.32;;;1.15;;
51578;SDS011;47998;53.242;6.386;2022-12-29T03:46:33;5.10;;;1.50;;
51578;SDS011;47998;53.242;6.386;2022-12-29T03:48:59;5.07;;;1.42;;
51578;SDS011;47998;53.242;6.386;2022-12-29T03:51:25;4.03;;;1.10;;
51578;SDS011;47998;53.242;6.386;2022-12-29T03:53:51;4.00;;;0.85;;
51578;SDS011;47998;53.242;6.386;2022-12-29T03:56:16;6.57;;;1.60;;
51578;SDS011;47998;53.242;6.386;2022-12-29T03:58:42;3.50;;;0.95;;
51578;SDS011;47998;53.242;6.386;2022-12-29T04:01:08;5.45;;;0.82;;
51578;SDS011;47998;53.242;6.386;2022-12-29T04:03:34;7.93;;;2.03;;
51578;SDS011;47998;53.242;6.386;2022-12-29T04:05:59;3.72;;;0.82;;
51578;SDS011;47998;53.242;6.386;2022-12-29T04:08:25;3.08;;;1.23;;
51578;SDS011;47998;53.242;6.386;2022-12-29T04:10:51;6.75;;;1.50;;
51578;SDS011;47998;53.242;6.386;2022-12-29T04:13:17;2.53;;;1.00;;
51578;SDS011;47998;53.242;6.386;2022-12-29T04:15:43;5.15;;;1.08;;
51578;SDS011;47998;53.242;6.386;2022-12-29T04:18:10;10.80;;;2.00;;
51578;SDS011;47998;53.242;6.386;2022-12-29T04:20:36;6.55;;;1.30;;
51578;SDS011;47998;53.242;6.386;2022-12-29T04:23:21;4.95;;;0.93;;
51578;SDS011;47998;53.242;6.386;2022-12-29T04:25:47;7.75;;;1.38;;
51578;SDS011;47998;53.242;6.386;2022-12-29T04:28:14;4.32;;;1.15;;
51578;SDS011;47998;53.242;6.386;2022-12-29T04:30:40;5.45;;;1.02;;
51578;SDS011;47998;53.242;6.386;2022-12-29T04:33:07;4.15;;;0.85;;
51578;SDS011;47998;53.242;6.386;2022-12-29T04:35:33;9.05;;;1.40;;
51578;SDS011;47998;53.242;6.386;2022-12-29T04:37:59;6.47;;;1.17;;
51578;SDS011;47998;53.242;6.386;2022-12-29T04:40:25;5.55;;;0.93;;
51578;SDS011;47998;53.242;6.386;2022-12-29T04:42:51;9.63;;;1.65;;
51578;SDS011;47998;53.242;6.386;2022-12-29T04:45:16;6.88;;;1.30;;
51578;SDS011;47998;53.242;6.386;2022-12-29T04:47:42;7.35;;;1.70;;
51578;SDS011;47998;53.242;6.386;2022-12-29T04:50:08;7.53;;;1.80;;
51578;SDS011;47998;53.242;6.386;2022-12-29T04:52:34;8.88;;;1.98;;
51578;SDS011;47998;53.242;6.386;2022-12-29T04:55:00;10.23;;;1.38;;
51578;SDS011;47998;53.242;6.386;2022-12-29T04:57:26;10.20;;;1.20;;
51578;SDS011;47998;53.242;6.386;2022-12-29T04:59:52;5.20;;;0.98;;
51578;SDS011;47998;53.242;6.386;2022-12-29T05:02:17;7.20;;;1.30;;
51578;SDS011;47998;53.242;6.386;2022-12-29T05:04:43;10.07;;;2.13;;
51578;SDS011;47998;53.242;6.386;2022-12-29T05:07:09;8.27;;;1.20;;
51578;SDS011;47998;53.242;6.386;2022-12-29T05:09:35;8.75;;;1.85;;
51578;SDS011;47998;53.242;6.386;2022-12-29T05:12:01;13.27;;;2.38;;
51578;SDS011;47998;53.242;6.386;2022-12-29T05:14:26;10.63;;;1.65;;
51578;SDS011;47998;53.242;6.386;2022-12-29T05:16:52;7.88;;;1.55;;
51578;SDS011;47998;53.242;6.386;2022-12-29T05:19:18;7.97;;;1.15;;
51578;SDS011;47998;53.242;6.386;2022-12-29T05:21:44;10.93;;;2.38;;
51578;SDS011;47998;53.242;6.386;2022-12-29T05:24:09;10.68;;;2.47;;
51578;SDS011;47998;53.242;6.386;2022-12-29T05:26:35;13.50;;;1.70;;
51578;SDS011;47998;53.242;6.386;2022-12-29T05:29:01;11.25;;;1.73;;
51578;SDS011;47998;53.242;6.386;2022-12-29T05:31:27;13.93;;;2.53;;
51578;SDS011;47998;53.242;6.386;2022-12-29T05:33:53;11.43;;;2.10;;
51578;SDS011;47998;53.242;6.386;2022-12-29T05:36:19;12.98;;;2.00;;
51578;SDS011;47998;53.242;6.386;2022-12-29T05:38:45;14.02;;;2.38;;
51578;SDS011;47998;53.242;6.386;2022-12-29T05:41:11;12.32;;;1.48;;
51578;SDS011;47998;53.242;6.386;2022-12-29T05:43:36;11.10;;;2.60;;
51578;SDS011;47998;53.242;6.386;2022-12-29T05:46:03;10.23;;;1.92;;
51578;SDS011;47998;53.242;6.386;2022-12-29T05:48:29;14.30;;;2.83;;
51578;SDS011;47998;53.242;6.386;2022-12-29T05:50:54;11.25;;;2.42;;
51578;SDS011;47998;53.242;6.386;2022-12-29T05:53:20;11.45;;;2.17;;
51578;SDS011;47998;53.242;6.386;2022-12-29T05:55:47;13.60;;;2.33;;
51578;SDS011;47998;53.242;6.386;2022-12-29T05:58:13;16.63;;;3.20;;
51578;SDS011;47998;53.242;6.386;2022-12-29T06:00:40;10.82;;;2.25;;
51578;SDS011;47998;53.242;6.386;2022-12-29T06:03:06;18.80;;;2.17;;
51578;SDS011;47998;53.242;6.386;2022-12-29T06:05:32;9.25;;;2.28;;
51578;SDS011;47998;53.242;6.386;2022-12-29T06:07:57;14.65;;;2.67;;
51578;SDS011;47998;53.242;6.386;2022-12-29T06:10:23;9.30;;;1.83;;
51578;SDS011;47998;53.242;6.386;2022-12-29T06:12:49;12.70;;;2.70;;
51578;SDS011;47998;53.242;6.386;2022-12-29T06:15:15;13.00;;;2.33;;
51578;SDS011;47998;53.242;6.386;2022-12-29T06:17:40;12.13;;;2.45;;
51578;SDS011;47998;53.242;6.386;2022-12-29T06:20:06;13.77;;;2.38;;
51578;SDS011;47998;53.242;6.386;2022-12-29T06:22:33;15.57;;;2.45;;
51578;SDS011;47998;53.242;6.386;2022-12-29T06:24:58;16.65;;;2.40;;
51578;SDS011;47998;53.242;6.386;2022-12-29T06:27:24;18.45;;;2.97;;
51578;SDS011;47998;53.242;6.386;2022-12-29T06:29:50;14.98;;;3.00;;
51578;SDS011;47998;53.242;6.386;2022-12-29T06:32:16;17.33;;;3.78;;
51578;SDS011;47998;53.242;6.386;2022-12-29T06:34:42;11.70;;;2.50;;
51578;SDS011;47998;53.242;6.386;2022-12-29T06:37:09;13.02;;;2.40;;
51578;SDS011;47998;53.242;6.386;2022-12-29T06:39:36;16.95;;;3.70;;
51578;SDS011;47998;53.242;6.386;2022-12-29T06:42:02;18.83;;;3.00;;
51578;SDS011;47998;53.242;6.386;2022-12-29T06:44:28;17.77;;;2.10;;
51578;SDS011;47998;53.242;6.386;2022-12-29T06:46:53;18.02;;;3.00;;
51578;SDS011;47998;53.242;6.386;2022-12-29T06:49:20;19.63;;;3.17;;
51578;SDS011;47998;53.242;6.386;2022-12-29T06:51:46;12.57;;;2.80;;
51578;SDS011;47998;53.242;6.386;2022-12-29T06:54:11;22.38;;;2.85;;
51578;SDS011;47998;53.242;6.386;2022-12-29T06:56:37;12.75;;;2.58;;
51578;SDS011;47998;53.242;6.386;2022-12-29T06:59:03;17.98;;;3.47;;
51578;SDS011;47998;53.242;6.386;2022-12-29T07:01:30;15.82;;;2.55;;
51578;SDS011;47998;53.242;6.386;2022-12-29T07:03:56;14.70;;;3.10;;
51578;SDS011;47998;53.242;6.386;2022-12-29T07:06:22;12.02;;;2.90;;
51578;SDS011;47998;53.242;6.386;2022-12-29T07:08:48;18.75;;;2.80;;
51578;SDS011;47998;53.242;6.386;2022-12-29T07:11:14;18.77;;;3.00;;
51578;SDS011;47998;53.242;6.386;2022-12-29T07:13:40;18.13;;;2.67;;
51578;SDS011;47998;53.242;6.386;2022-12-29T07:16:08;16.65;;;2.65;;
51578;SDS011;47998;53.242;6.386;2022-12-29T07:18:35;9.65;;;2.28;;
51578;SDS011;47998;53.242;6.386;2022-12-29T07:21:01;14.82;;;2.42;;
51578;SDS011;47998;53.242;6.386;2022-12-29T07:23:27;17.00;;;2.63;;
51578;SDS011;47998;53.242;6.386;2022-12-29T07:26:04;15.80;;;2.83;;
51578;SDS011;47998;53.242;6.386;2022-12-29T07:28:34;16.73;;;2.55;;
51578;SDS011;47998;53.242;6.386;2022-12-29T07:31:05;17.92;;;3.00;;
51578;SDS011;47998;53.242;6.386;2022-12-29T07:33:31;20.15;;;3.50;;
51578;SDS011;47998;53.242;6.386;2022-12-29T07:35:57;19.38;;;4.25;;
51578;SDS011;47998;53.242;6.386;2022-12-29T07:38:24;18.88;;;3.10;;
51578;SDS011;47998;53.242;6.386;2022-12-29T07:40:50;17.33;;;3.53;;
51578;SDS011;47998;53.242;6.386;2022-12-29T07:43:16;15.35;;;3.00;;
51578;SDS011;47998;53.242;6.386;2022-12-29T07:45:41;16.83;;;2.58;;
51578;SDS011;47998;53.242;6.386;2022-12-29T07:48:07;15.82;;;2.85;;
51578;SDS011;47998;53.242;6.386;2022-12-29T07:50:36;11.43;;;2.55;;
51578;SDS011;47998;53.242;6.386;2022-12-29T07:53:02;15.40;;;2.75;;
51578;SDS011;47998;53.242;6.386;2022-12-29T07:55:29;13.05;;;2.15;;
51578;SDS011;47998;53.242;6.386;2022-12-29T07:57:55;13.00;;;2.05;;
51578;SDS011;47998;53.242;6.386;2022-12-29T08:00:21;13.82;;;3.00;;
51578;SDS011;47998;53.242;6.386;2022-12-29T08:02:47;15.55;;;2.45;;
51578;SDS011;47998;53.242;6.386;2022-12-29T08:05:13;12.48;;;2.50;;
51578;SDS011;47998;53.242;6.386;2022-12-29T08:07:42;16.67;;;2.97;;
51578;SDS011;47998;53.242;6.386;2022-12-29T08:10:09;12.30;;;2.90;;
51578;SDS011;47998;53.242;6.386;2022-12-29T08:12:36;19.23;;;3.00;;
51578;SDS011;47998;53.242;6.386;2022-12-29T08:15:03;17.95;;;3.92;;
51578;SDS011;47998;53.242;6.386;2022-12-29T08:17:30;15.75;;;3.10;;
51578;SDS011;47998;53.242;6.386;2022-12-29T08:19:55;18.35;;;3.53;;
51578;SDS011;47998;53.242;6.386;2022-12-29T08:22:22;15.93;;;3.58;;
51578;SDS011;47998;53.242;6.386;2022-12-29T08:24:48;12.18;;;3.17;;
51578;SDS011;47998;53.242;6.386;2022-12-29T08:27:17;13.50;;;2.58;;
51578;SDS011;47998;53.242;6.386;2022-12-29T08:29:43;17.95;;;3.63;;
51578;SDS011;47998;53.242;6.386;2022-12-29T08:32:09;26.80;;;4.72;;
51578;SDS011;47998;53.242;6.386;2022-12-29T08:34:35;20.23;;;4.75;;
51578;SDS011;47998;53.242;6.386;2022-12-29T08:37:01;23.20;;;4.65;;
51578;SDS011;47998;53.242;6.386;2022-12-29T08:39:27;22.05;;;3.85;;
51578;SDS011;47998;53.242;6.386;2022-12-29T08:41:53;19.52;;;3.58;;
51578;SDS011;47998;53.242;6.386;2022-12-29T08:44:19;21.42;;;4.25;;
51578;SDS011;47998;53.242;6.386;2022-12-29T08:46:45;15.73;;;3.17;;
51578;SDS011;47998;53.242;6.386;2022-12-29T08:49:10;18.40;;;3.78;;
51578;SDS011;47998;53.242;6.386;2022-12-29T08:51:36;18.70;;;4.75;;
51578;SDS011;47998;53.242;6.386;2022-12-29T08:54:02;22.05;;;5.07;;
51578;SDS011;47998;53.242;6.386;2022-12-29T08:56:28;17.48;;;4.35;;
51578;SDS011;47998;53.242;6.386;2022-12-29T08:58:54;19.05;;;3.10;;
51578;SDS011;47998;53.242;6.386;2022-12-29T09:01:20;21.33;;;3.65;;
51578;SDS011;47998;53.242;6.386;2022-12-29T09:03:46;22.77;;;5.35;;
51578;SDS011;47998;53.242;6.386;2022-12-29T09:06:13;24.45;;;3.97;;
51578;SDS011;47998;53.242;6.386;2022-12-29T09:08:40;23.05;;;3.83;;
51578;SDS011;47998;53.242;6.386;2022-12-29T09:11:07;22.77;;;4.18;;
51578;SDS011;47998;53.242;6.386;2022-12-29T09:13:34;29.92;;;4.85;;
51578;SDS011;47998;53.242;6.386;2022-12-29T09:16:00;25.40;;;5.03;;
51578;SDS011;47998;53.242;6.386;2022-12-29T09:18:26;29.75;;;5.45;;
51578;SDS011;47998;53.242;6.386;2022-12-29T09:20:56;25.95;;;4.25;;
51578;SDS011;47998;53.242;6.386;2022-12-29T09:23:26;25.65;;;4.95;;
51578;SDS011;47998;53.242;6.386;2022-12-29T09:25:52;31.75;;;5.95;;
51578;SDS011;47998;53.242;6.386;2022-12-29T09:28:19;23.02;;;4.95;;
51578;SDS011;47998;53.242;6.386;2022-12-29T09:30:45;31.60;;;4.78;;
51578;SDS011;47998;53.242;6.386;2022-12-29T09:33:12;24.67;;;4.57;;
51578;SDS011;47998;53.242;6.386;2022-12-29T09:35:41;21.13;;;4.40;;
51578;SDS011;47998;53.242;6.386;2022-12-29T09:38:08;17.75;;;3.20;;
51578;SDS011;47998;53.242;6.386;2022-12-29T09:40:34;21.60;;;4.32;;
51578;SDS011;47998;53.242;6.386;2022-12-29T09:48:43;22.88;;;4.45;;
51578;SDS011;47998;53.242;6.386;2022-12-29T09:51:13;24.35;;;3.78;;
51578;SDS011;47998;53.242;6.386;2022-12-29T09:53:49;18.35;;;3.70;;
51578;SDS011;47998;53.242;6.386;2022-12-29T09:56:21;23.13;;;3.45;;
51578;SDS011;47998;53.242;6.386;2022-12-29T09:58:54;22.40;;;3.65;;
51578;SDS011;47998;53.242;6.386;2022-12-29T10:01:53;22.33;;;3.30;;
51578;SDS011;47998;53.242;6.386;2022-12-29T10:04:29;14.73;;;3.65;;
51578;SDS011;47998;53.242;6.386;2022-12-29T10:07:01;20.85;;;3.33;;
51578;SDS011;47998;53.242;6.386;2022-12-29T10:20:31;16.30;;;3.72;;
51578;SDS011;47998;53.242;6.386;2022-12-29T10:25:50;15.75;;;3.85;;
51578;SDS011;47998;53.242;6.386;2022-12-29T10:28:23;15.88;;;3.15;;
51578;SDS011;47998;53.242;6.386;2022-12-29T10:30:59;15.98;;;3.22;;
51578;SDS011;47998;53.242;6.386;2022-12-29T10:33:39;14.93;;;2.72;;
51578;SDS011;47998;53.242;6.386;2022-12-29T10:36:34;21.73;;;3.22;;
51578;SDS011;47998;53.242;6.386;2022-12-29T10:44:36;16.60;;;4.20;;
51578;SDS011;47998;53.242;6.386;2022-12-29T10:47:03;16.67;;;3.97;;
51578;SDS011;47998;53.242;6.386;2022-12-29T10:49:34;21.50;;;3.25;;
51578;SDS011;47998;53.242;6.386;2022-12-29T10:52:04;26.58;;;4.63;;
51578;SDS011;47998;53.242;6.386;2022-12-29T10:59:47;26.80;;;4.07;;
51578;SDS011;47998;53.242;6.386;2022-12-29T11:02:21;26.67;;;4.07;;
51578;SDS011;47998;53.242;6.386;2022-12-29T11:07:53;32.22;;;5.80;;
51578;SDS011;47998;53.242;6.386;2022-12-29T11:13:01;23.88;;;4.55;;
51578;SDS011;47998;53.242;6.386;2022-12-29T11:15:43;31.35;;;5.05;;
51578;SDS011;47998;53.242;6.386;2022-12-29T11:20:55;19.30;;;4.18;;
51578;SDS011;47998;53.242;6.386;2022-12-29T11:23:27;26.73;;;5.75;;
51578;SDS011;47998;53.242;6.386;2022-12-29T11:28:46;29.65;;;5.15;;
51578;SDS011;47998;53.242;6.386;2022-12-29T11:31:28;25.88;;;5.25;;
51578;SDS011;47998;53.242;6.386;2022-12-29T11:33:54;24.55;;;4.35;;
51578;SDS011;47998;53.242;6.386;2022-12-29T11:36:20;27.08;;;4.65;;
51578;SDS011;47998;53.242;6.386;2022-12-29T11:38:51;24.52;;;6.05;;
51578;SDS011;47998;53.242;6.386;2022-12-29T11:41:23;28.50;;;5.05;;
51578;SDS011;47998;53.242;6.386;2022-12-29T11:44:00;29.10;;;5.43;;
51578;SDS011;47998;53.242;6.386;2022-12-29T11:46:30;27.20;;;5.32;;
51578;SDS011;47998;53.242;6.386;2022-12-29T11:49:02;25.83;;;4.32;;
51578;SDS011;47998;53.242;6.386;2022-12-29T11:51:34;23.98;;;4.45;;
51578;SDS011;47998;53.242;6.386;2022-12-29T11:54:22;22.30;;;5.03;;
51578;SDS011;47998;53.242;6.386;2022-12-29T11:56:56;33.10;;;6.03;;
51578;SDS011;47998;53.242;6.386;2022-12-29T11:59:25;24.23;;;4.07;;
51578;SDS011;47998;53.242;6.386;2022-12-29T12:02:18;23.70;;;4.13;;
51578;SDS011;47998;53.242;6.386;2022-12-29T12:05:20;20.63;;;4.43;;
51578;SDS011;47998;53.242;6.386;2022-12-29T12:10:44;28.40;;;5.40;;
51578;SDS011;47998;53.242;6.386;2022-12-29T12:16:22;20.98;;;4.50;;
51578;SDS011;47998;53.242;6.386;2022-12-29T12:19:02;21.55;;;3.47;;
51578;SDS011;47998;53.242;6.386;2022-12-29T12:21:39;16.13;;;2.33;;
51578;SDS011;47998;53.242;6.386;2022-12-29T12:35:37;10.63;;;2.60;;
51578;SDS011;47998;53.242;6.386;2022-12-29T12:47:02;17.63;;;2.15;;
51578;SDS011;47998;53.242;6.386;2022-12-29T12:50:19;11.85;;;1.92;;
51578;SDS011;47998;53.242;6.386;2022-12-29T12:52:58;15.20;;;2.65;;
51578;SDS011;47998;53.242;6.386;2022-12-29T13:17:50;9.60;;;1.83;;
51578;SDS011;47998;53.242;6.386;2022-12-29T13:21:11;10.93;;;1.75;;
51578;SDS011;47998;53.242;6.386;2022-12-29T13:23:42;10.60;;;2.20;;
51578;SDS011;47998;53.242;6.386;2022-12-29T13:26:25;9.80;;;1.80;;
51578;SDS011;47998;53.242;6.386;2022-12-29T13:32:06;13.23;;;2.17;;
51578;SDS011;47998;53.242;6.386;2022-12-29T13:35:04;11.32;;;1.70;;
51578;SDS011;47998;53.242;6.386;2022-12-29T13:37:53;12.10;;;2.03;;
51578;SDS011;47998;53.242;6.386;2022-12-29T13:40:25;12.95;;;1.95;;
51578;SDS011;47998;53.242;6.386;2022-12-29T13:42:53;12.60;;;2.72;;
51578;SDS011;47998;53.242;6.386;2022-12-29T13:45:22;9.73;;;2.10;;
51578;SDS011;47998;53.242;6.386;2022-12-29T13:50:36;12.88;;;1.42;;
51578;SDS011;47998;53.242;6.386;2022-12-29T13:55:58;14.73;;;2.13;;
51578;SDS011;47998;53.242;6.386;2022-12-29T14:04:11;11.18;;;2.13;;
51578;SDS011;47998;53.242;6.386;2022-12-29T14:06:39;6.85;;;1.35;;
51578;SDS011;47998;53.242;6.386;2022-12-29T14:12:19;11.75;;;1.98;;
51578;SDS011;47998;53.242;6.386;2022-12-29T14:15:22;8.02;;;1.63;;
51578;SDS011;47998;53.242;6.386;2022-12-29T14:18:09;11.13;;;1.63;;
51578;SDS011;47998;53.242;6.386;2022-12-29T14:23:38;10.80;;;2.45;;
51578;SDS011;47998;53.242;6.386;2022-12-29T14:28:41;10.68;;;1.50;;
51578;SDS011;47998;53.242;6.386;2022-12-29T14:36:36;8.63;;;1.35;;
51578;SDS011;47998;53.242;6.386;2022-12-29T14:39:04;13.23;;;2.35;;
51578;SDS011;47998;53.242;6.386;2022-12-29T14:44:28;15.18;;;2.60;;
51578;SDS011;47998;53.242;6.386;2022-12-29T14:49:27;13.52;;;1.88;;
51578;SDS011;47998;53.242;6.386;2022-12-29T14:52:05;10.43;;;1.75;;
51578;SDS011;47998;53.242;6.386;2022-12-29T14:57:07;22.88;;;3.35;;
51578;SDS011;47998;53.242;6.386;2022-12-29T14:59:43;17.75;;;2.55;;
51578;SDS011;47998;53.242;6.386;2022-12-29T15:02:19;12.02;;;2.55;;
51578;SDS011;47998;53.242;6.386;2022-12-29T15:04:47;16.30;;;2.00;;
51578;SDS011;47998;53.242;6.386;2022-12-29T15:07:14;17.98;;;2.28;;
51578;SDS011;47998;53.242;6.386;2022-12-29T15:09:51;13.75;;;2.63;;
51578;SDS011;47998;53.242;6.386;2022-12-29T15:15:21;16.38;;;2.83;;
51578;SDS011;47998;53.242;6.386;2022-12-29T15:17:49;13.82;;;2.67;;
51578;SDS011;47998;53.242;6.386;2022-12-29T15:20:23;18.08;;;2.75;;
51578;SDS011;47998;53.242;6.386;2022-12-29T15:22:52;9.98;;;1.83;;
51578;SDS011;47998;53.242;6.386;2022-12-29T15:25:22;19.00;;;3.72;;
51578;SDS011;47998;53.242;6.386;2022-12-29T15:27:50;13.15;;;2.67;;
51578;SDS011;47998;53.242;6.386;2022-12-29T15:30:26;16.20;;;2.67;;
51578;SDS011;47998;53.242;6.386;2022-12-29T15:32:51;15.93;;;2.25;;
51578;SDS011;47998;53.242;6.386;2022-12-29T15:35:25;19.38;;;3.83;;
51578;SDS011;47998;53.242;6.386;2022-12-29T15:37:59;14.85;;;2.95;;
51578;SDS011;47998;53.242;6.386;2022-12-29T15:40:31;16.60;;;2.60;;
51578;SDS011;47998;53.242;6.386;2022-12-29T15:43:20;13.98;;;3.60;;
51578;SDS011;47998;53.242;6.386;2022-12-29T15:46:02;18.75;;;3.20;;
51578;SDS011;47998;53.242;6.386;2022-12-29T15:48:29;13.88;;;2.47;;
51578;SDS011;47998;53.242;6.386;2022-12-29T15:50:56;12.57;;;2.45;;
51578;SDS011;47998;53.242;6.386;2022-12-29T15:53:29;14.65;;;2.92;;
51578;SDS011;47998;53.242;6.386;2022-12-29T15:58:27;17.38;;;3.30;;
51578;SDS011;47998;53.242;6.386;2022-12-29T16:00:56;17.58;;;2.60;;
51578;SDS011;47998;53.242;6.386;2022-12-29T16:03:33;14.27;;;2.30;;
51578;SDS011;47998;53.242;6.386;2022-12-29T16:06:09;16.27;;;2.60;;
51578;SDS011;47998;53.242;6.386;2022-12-29T16:08:57;11.23;;;2.22;;
51578;SDS011;47998;53.242;6.386;2022-12-29T16:11:35;23.00;;;3.63;;
51578;SDS011;47998;53.242;6.386;2022-12-29T16:14:24;19.25;;;3.75;;
51578;SDS011;47998;53.242;6.386;2022-12-29T16:16:53;19.17;;;3.15;;
51578;SDS011;47998;53.242;6.386;2022-12-29T16:19:26;16.45;;;3.22;;
51578;SDS011;47998;53.242;6.386;2022-12-29T16:21:54;6.60;;;1.20;;
51578;SDS011;47998;53.242;6.386;2022-12-29T16:24:25;13.30;;;2.15;;
51578;SDS011;47998;53.242;6.386;2022-12-29T16:27:08;13.43;;;2.33;;
51578;SDS011;47998;53.242;6.386;2022-12-29T16:29:53;9.85;;;1.30;;
51578;SDS011;47998;53.242;6.386;2022-12-29T16:32:25;7.22;;;0.93;;
51578;SDS011;47998;53.242;6.386;2022-12-29T16:37:38;7.88;;;1.00;;
51578;SDS011;47998;53.242;6.386;2022-12-29T16:42:54;7.90;;;1.52;;
51578;SDS011;47998;53.242;6.386;2022-12-29T16:47:49;12.32;;;2.00;;
51578;SDS011;47998;53.242;6.386;2022-12-29T16:50:46;13.50;;;3.75;;
51578;SDS011;47998;53.242;6.386;2022-12-29T16:53:21;13.15;;;1.60;;
51578;SDS011;47998;53.242;6.386;2022-12-29T16:55:51;9.18;;;2.55;;
51578;SDS011;47998;53.242;6.386;2022-12-29T16:58:19;14.07;;;2.55;;
51578;SDS011;47998;53.242;6.386;2022-12-29T17:00:57;8.63;;;2.15;;
51578;SDS011;47998;53.242;6.386;2022-12-29T17:03:30;8.55;;;1.77;;
51578;SDS011;47998;53.242;6.386;2022-12-29T17:06:04;11.73;;;2.20;;
51578;SDS011;47998;53.242;6.386;2022-12-29T17:08:38;8.65;;;1.73;;
51578;SDS011;47998;53.242;6.386;2022-12-29T17:11:07;13.50;;;1.88;;
51578;SDS011;47998;53.242;6.386;2022-12-29T17:17:02;18.50;;;2.50;;
51578;SDS011;47998;53.242;6.386;2022-12-29T17:19:31;14.35;;;2.20;;
51578;SDS011;47998;53.242;6.386;2022-12-29T17:21:59;13.05;;;3.00;;
51578;SDS011;47998;53.242;6.386;2022-12-29T17:24:28;18.73;;;3.30;;
51578;SDS011;47998;53.242;6.386;2022-12-29T17:26:55;15.02;;;2.90;;
51578;SDS011;47998;53.242;6.386;2022-12-29T17:29:29;21.95;;;3.53;;
51578;SDS011;47998;53.242;6.386;2022-12-29T17:31:58;9.65;;;2.30;;
51578;SDS011;47998;53.242;6.386;2022-12-29T17:34:25;15.52;;;2.72;;
51578;SDS011;47998;53.242;6.386;2022-12-29T17:36:51;30.92;;;3.80;;
51578;SDS011;47998;53.242;6.386;2022-12-29T17:39:17;16.20;;;3.45;;
51578;SDS011;47998;53.242;6.386;2022-12-29T17:41:43;26.27;;;3.63;;
51578;SDS011;47998;53.242;6.386;2022-12-29T17:44:13;32.25;;;3.90;;
51578;SDS011;47998;53.242;6.386;2022-12-29T17:46:42;27.70;;;4.55;;
51578;SDS011;47998;53.242;6.386;2022-12-29T17:49:10;23.60;;;4.68;;
51578;SDS011;47998;53.242;6.386;2022-12-29T17:51:41;21.63;;;4.13;;
51578;SDS011;47998;53.242;6.386;2022-12-29T17:54:20;21.98;;;4.07;;